Time;durP1;ratioP1;P1;durP2;ratioP2;P2;SDS_P1;SDS_P2;PMS_P1;PMS_P2;Temp;Humidity;BMP_temperature;BMP_pressure;BME280_temperature;BME280_humidity;BME280_pressure;Samples;Min_cycle;Max_cycle;Signal;HPM_P1;HPM_P2
2024/03/26 00:02:33;;;;;;;0.80;0.68;;;0.90;99.90;;;;;;8303441;28;20091;-84
2024/03/26 00:06:34;;;;;;;1.45;0.82;;;0.80;99.90;;;;;;8299234;28;20031;-86
2024/03/26 00:10:34;;;;;;;0.77;0.60;;;0.90;99.90;;;;;;8313633;28;20074;-86
2024/03/26 00:14:35;;;;;;;0.60;0.60;;;0.80;99.90;;;;;;8301168;28;20070;-86
2024/03/26 00:18:35;;;;;;;1.02;0.90;;;0.60;99.90;;;;;;8297485;28;20501;-86
2024/03/26 00:22:36;;;;;;;1.27;0.80;;;0.60;99.90;;;;;;8309139;28;20030;-85
2024/03/26 00:26:37;;;;;;;1.20;0.60;;;0.40;99.90;;;;;;8320845;28;20508;-87
2024/03/26 00:30:37;;;;;;;2.30;0.95;;;0.40;99.90;;;;;;8310916;28;20026;-86
2024/03/26 00:34:38;;;;;;;1.40;1.02;;;0.40;99.90;;;;;;8315258;28;20184;-87
2024/03/26 00:38:38;;;;;;;1.33;0.75;;;0.50;99.90;;;;;;8322116;28;20029;-87
2024/03/26 00:42:39;;;;;;;2.60;1.08;;;0.80;99.90;;;;;;8319877;28;20109;-86
2024/03/26 00:46:40;;;;;;;2.47;1.00;;;1.00;99.90;;;;;;8299243;28;20037;-86
2024/03/26 00:50:40;;;;;;;1.13;0.63;;;1.00;99.90;;;;;;8299427;28;20049;-86
2024/03/26 00:54:41;;;;;;;1.15;0.88;;;0.70;99.90;;;;;;8305828;28;20026;-87
2024/03/26 00:58:41;;;;;;;0.73;0.73;;;0.70;99.90;;;;;;8321510;28;20026;-86
2024/03/26 01:02:42;;;;;;;1.25;0.98;;;0.40;99.90;;;;;;8300997;28;20504;-86
2024/03/26 01:06:42;;;;;;;1.08;0.68;;;0.40;99.90;;;;;;8321243;28;20498;-87
2024/03/26 01:10:43;;;;;;;2.17;0.73;;;0.00;99.90;;;;;;8295005;28;20104;-88
2024/03/26 01:14:44;;;;;;;1.80;0.50;;;0.20;99.90;;;;;;8305117;28;20475;-86
2024/03/26 01:18:44;;;;;;;0.40;0.40;;;-0.10;99.90;;;;;;8306210;28;20027;-87
2024/03/26 01:22:45;;;;;;;0.52;0.52;;;-0.40;99.90;;;;;;8320318;28;20036;-86
2024/03/26 01:26:45;;;;;;;1.55;0.40;;;-0.60;99.90;;;;;;8301898;28;20022;-86
2024/03/26 01:30:46;;;;;;;5.60;1.33;;;-0.80;99.90;;;;;;8302424;28;20056;-86
2024/03/26 01:34:47;;;;;;;2.65;1.02;;;-0.80;99.90;;;;;;8313419;28;20025;-86
2024/03/26 01:38:47;;;;;;;0.75;0.55;;;-0.70;99.90;;;;;;8306818;28;20021;-86
2024/03/26 01:42:48;;;;;;;1.05;0.63;;;-0.50;99.90;;;;;;8303239;28;20045;-86
2024/03/26 01:46:49;;;;;;;3.17;0.60;;;-0.50;99.90;;;;;;8300184;28;20026;-87
2024/03/26 01:50:51;;;;;;;1.80;0.63;;;-0.80;99.90;;;;;;8315250;28;20022;-86
2024/03/26 01:54:51;;;;;;;0.82;0.65;;;-1.00;99.90;;;;;;8314471;28;20026;-87
2024/03/26 01:58:52;;;;;;;1.25;0.50;;;-1.10;99.90;;;;;;8295923;28;20044;-86
2024/03/26 02:02:52;;;;;;;2.05;0.90;;;-1.20;99.90;;;;;;8308753;28;20018;-86
2024/03/26 02:06:53;;;;;;;0.65;0.52;;;-1.20;99.90;;;;;;8318799;28;20029;-86
2024/03/26 02:10:54;;;;;;;1.67;0.60;;;-1.20;99.90;;;;;;8293141;28;20121;-86
2024/03/26 02:14:54;;;;;;;1.30;0.90;;;-1.30;99.90;;;;;;8314598;28;20607;-86
2024/03/26 02:18:55;;;;;;;1.75;0.75;;;-1.20;99.90;;;;;;8294978;28;20029;-85
2024/03/26 02:22:56;;;;;;;0.40;0.32;;;-1.20;99.90;;;;;;8316411;28;20026;-86
2024/03/26 02:26:58;;;;;;;1.10;0.63;;;-1.20;99.90;;;;;;8301481;28;20030;-86
2024/03/26 02:30:59;;;;;;;0.82;0.82;;;-1.30;99.90;;;;;;8311296;28;20030;-86
2024/03/26 02:34:59;;;;;;;2.17;0.73;;;-1.40;99.90;;;;;;8299578;28;20029;-86
2024/03/26 02:39:00;;;;;;;1.10;0.88;;;-1.30;99.90;;;;;;8303114;28;20026;-86
2024/03/26 02:43:01;;;;;;;1.25;0.85;;;-1.30;99.90;;;;;;8301367;28;20031;-86
2024/03/26 02:47:02;;;;;;;1.50;0.73;;;-1.30;99.90;;;;;;8299347;28;20029;-87
2024/03/26 02:51:02;;;;;;;0.80;0.70;;;-1.30;99.90;;;;;;8310544;28;20100;-86
2024/03/26 02:55:03;;;;;;;1.63;0.70;;;-1.10;99.90;;;;;;8286180;28;20025;-86
2024/03/26 02:59:04;;;;;;;1.45;0.93;;;-1.20;99.90;;;;;;8293068;28;20063;-86
2024/03/26 03:03:05;;;;;;;2.05;0.80;;;-1.30;99.90;;;;;;8314683;28;20455;-86
2024/03/26 03:07:05;;;;;;;1.48;0.80;;;-1.40;99.90;;;;;;8292930;28;20022;-87
2024/03/26 03:11:06;;;;;;;1.00;0.90;;;-1.40;99.90;;;;;;8295028;28;20113;-86
2024/03/26 03:15:07;;;;;;;1.00;0.63;;;-1.40;99.90;;;;;;8290248;28;20425;-88
2024/03/26 03:19:07;;;;;;;4.53;1.25;;;-1.10;99.90;;;;;;8292604;28;20025;-86
2024/03/26 03:23:08;;;;;;;1.75;1.23;;;-1.00;99.90;;;;;;8325538;28;20487;-86
2024/03/26 03:27:09;;;;;;;1.15;0.88;;;-0.90;99.90;;;;;;8304879;28;20057;-88
2024/03/26 03:31:09;;;;;;;1.23;0.82;;;-1.10;99.90;;;;;;8301261;28;20029;-87
2024/03/26 03:35:12;;;;;;;4.03;0.98;;;-1.20;99.90;;;;;;8310693;28;20044;-88
2024/03/26 03:39:13;;;;;;;0.98;0.88;;;-1.00;99.90;;;;;;8318832;28;20068;-87
2024/03/26 03:43:13;;;;;;;1.45;1.10;;;-1.30;99.90;;;;;;8297110;28;20384;-87
2024/03/26 03:47:14;;;;;;;0.82;0.80;;;-1.40;99.90;;;;;;8290376;28;20116;-87
2024/03/26 03:51:14;;;;;;;1.98;0.85;;;-1.60;99.90;;;;;;8297651;28;20026;-88
2024/03/26 04:00:13;;;;;;;1.25;0.90;;;-1.70;99.90;;;;;;8285291;28;20676;-87
2024/03/26 04:04:13;;;;;;;1.52;0.80;;;-1.50;99.90;;;;;;8294271;28;20034;-87
2024/03/26 04:08:14;;;;;;;1.35;0.93;;;-1.60;99.90;;;;;;8310740;28;20028;-87
2024/03/26 04:12:14;;;;;;;1.85;0.77;;;-1.60;99.90;;;;;;8299845;28;20029;-87
2024/03/26 04:16:15;;;;;;;1.52;1.13;;;-1.50;99.90;;;;;;8315905;28;20026;-88
2024/03/26 04:20:15;;;;;;;1.38;1.08;;;-1.50;99.90;;;;;;8302740;28;20097;-87
2024/03/26 04:24:16;;;;;;;2.25;0.70;;;-1.40;99.90;;;;;;8311872;28;20518;-88
2024/03/26 04:28:17;;;;;;;1.90;0.85;;;-1.40;99.90;;;;;;8300157;28;20065;-88
2024/03/26 04:32:17;;;;;;;2.50;1.10;;;-1.30;99.90;;;;;;8294487;28;20431;-88
2024/03/26 04:36:18;;;;;;;2.45;0.98;;;-1.30;99.90;;;;;;8301255;28;20445;-87
2024/03/26 04:40:18;;;;;;;2.22;0.80;;;-1.40;99.90;;;;;;8299313;28;20056;-88
2024/03/26 04:44:19;;;;;;;2.70;1.00;;;-1.50;99.90;;;;;;8299330;28;20430;-87
2024/03/26 04:48:19;;;;;;;3.55;0.98;;;-1.60;99.90;;;;;;8297012;28;20030;-87
2024/03/26 04:52:20;;;;;;;1.40;1.00;;;-1.60;99.90;;;;;;8295719;28;20152;-88
2024/03/26 04:56:20;;;;;;;0.90;0.82;;;-1.30;99.90;;;;;;8295011;28;20446;-88
2024/03/26 05:00:21;;;;;;;1.25;0.90;;;-1.50;99.90;;;;;;8297928;28;20034;-88
2024/03/26 05:04:21;;;;;;;1.58;0.70;;;-1.60;99.90;;;;;;8296366;28;20057;-88
2024/03/26 05:08:22;;;;;;;3.30;1.10;;;-1.30;99.90;;;;;;8304912;28;20058;-87
2024/03/26 05:12:23;;;;;;;1.30;0.85;;;-0.90;99.90;;;;;;8297624;28;20030;-88
2024/03/26 05:16:23;;;;;;;1.40;0.85;;;-1.10;99.90;;;;;;8306978;28;20028;-88
2024/03/26 05:20:24;;;;;;;2.08;1.30;;;-1.20;99.90;;;;;;8294471;28;20034;-88
2024/03/26 05:24:24;;;;;;;1.70;0.93;;;-1.40;99.90;;;;;;8296667;28;20033;-88
2024/03/26 05:28:25;;;;;;;5.65;0.90;;;-1.20;99.90;;;;;;8299263;28;20069;-88
2024/03/26 05:32:25;;;;;;;1.20;0.70;;;-1.20;99.90;;;;;;8304114;28;20033;-88
2024/03/26 05:36:27;;;;;;;1.83;0.95;;;-1.20;99.90;;;;;;8295937;28;20049;-89
2024/03/26 05:40:28;;;;;;;1.30;0.90;;;-1.00;99.90;;;;;;8307632;28;20030;-88
2024/03/26 05:44:29;;;;;;;1.95;1.00;;;-0.80;99.90;;;;;;8315618;28;20195;-88
2024/03/26 05:48:33;;;;;;;1.08;0.60;;;-0.50;99.90;;;;;;8299512;28;20032;-88
2024/03/26 05:52:33;;;;;;;1.38;0.95;;;-0.40;99.90;;;;;;8306143;28;20017;-88
2024/03/26 05:56:34;;;;;;;4.50;2.33;;;-0.40;99.90;;;;;;8303898;28;20117;-88
2024/03/26 06:00:35;;;;;;;3.13;1.52;;;-0.10;99.90;;;;;;8300841;28;20022;-88
2024/03/26 06:04:35;;;;;;;7.10;1.60;;;0.50;99.90;;;;;;8294435;28;20030;-88
2024/03/26 06:08:36;;;;;;;1.42;1.05;;;0.80;99.90;;;;;;8311856;28;20103;-88
2024/03/26 06:12:40;;;;;;;7.65;3.90;;;1.10;99.90;;;;;;8302084;28;20038;-88
2024/03/26 06:16:41;;;;;;;1.95;1.38;;;1.60;99.90;;;;;;8313743;28;20025;-88
2024/03/26 06:20:42;;;;;;;1.70;1.08;;;1.90;99.90;;;;;;8305526;28;20037;-89
2024/03/26 06:24:42;;;;;;;2.30;1.27;;;2.10;99.90;;;;;;8295823;28;20061;-88
2024/03/26 06:28:43;;;;;;;5.00;1.40;;;2.00;99.90;;;;;;8297477;28;20509;-87
2024/03/26 06:32:43;;;;;;;2.55;1.20;;;2.10;99.90;;;;;;8316545;28;20056;-88
2024/03/26 06:36:44;;;;;;;3.75;1.50;;;2.50;99.90;;;;;;8311777;28;20037;-87
2024/03/26 06:40:44;;;;;;;4.05;1.48;;;3.00;99.90;;;;;;8314913;28;20755;-87
2024/03/26 06:44:46;;;;;;;3.40;1.70;;;2.90;99.90;;;;;;8295263;28;20033;-88
2024/03/26 06:48:46;;;;;;;3.33;1.23;;;3.10;99.90;;;;;;8309044;28;20080;-87
2024/03/26 06:52:51;;;;;;;3.47;1.42;;;3.60;99.90;;;;;;8299868;28;20515;-89
2024/03/26 06:56:51;;;;;;;3.88;1.30;;;3.80;99.90;;;;;;8307736;28;20106;-86
2024/03/26 07:00:52;;;;;;;3.90;1.77;;;3.90;99.90;;;;;;8311358;28;20399;-88
2024/03/26 07:04:52;;;;;;;2.63;1.38;;;4.20;99.90;;;;;;8311559;28;20068;-87
2024/03/26 07:08:53;;;;;;;1.95;1.15;;;4.10;99.90;;;;;;8299707;28;20029;-86
2024/03/26 07:12:54;;;;;;;3.10;1.52;;;4.30;99.90;;;;;;8317823;28;20449;-87
2024/03/26 07:16:54;;;;;;;2.35;1.50;;;4.40;99.90;;;;;;8290937;28;20057;-86
2024/03/26 07:20:55;;;;;;;2.08;1.33;;;4.50;99.90;;;;;;8310811;28;20104;-86
2024/03/26 07:24:55;;;;;;;2.08;1.38;;;4.70;99.90;;;;;;8310795;28;20042;-86
2024/03/26 07:28:57;;;;;;;2.35;1.70;;;5.00;99.90;;;;;;8312789;28;20026;-86
2024/03/26 07:32:58;;;;;;;3.75;1.65;;;5.00;99.90;;;;;;8292712;28;20449;-86
2024/03/26 07:36:58;;;;;;;4.68;2.20;;;5.30;99.90;;;;;;8296481;28;20397;-86
2024/03/26 07:40:59;;;;;;;6.30;2.05;;;6.10;99.90;;;;;;8300027;28;20033;-86
2024/03/26 07:45:01;;;;;;;3.92;1.60;;;6.10;99.90;;;;;;8310832;28;20038;-86
2024/03/26 07:49:01;;;;;;;2.03;1.33;;;6.40;99.90;;;;;;8298997;28;20108;-86
2024/03/26 07:53:02;;;;;;;1.98;1.58;;;6.60;99.90;;;;;;8287538;28;20014;-85
2024/03/26 07:57:02;;;;;;;2.70;1.58;;;6.60;99.90;;;;;;8304736;28;20208;-85
2024/03/26 08:01:03;;;;;;;3.15;1.90;;;6.60;99.90;;;;;;8292653;28;20026;-85
2024/03/26 08:05:05;;;;;;;6.68;1.98;;;6.70;99.90;;;;;;8300041;28;20034;-86
2024/03/26 08:09:07;;;;;;;4.10;1.88;;;6.70;99.90;;;;;;8301099;28;20018;-86
2024/03/26 08:13:09;;;;;;;4.88;1.75;;;7.00;99.90;;;;;;8307846;28;20050;-86
2024/03/26 08:17:10;;;;;;;6.20;2.15;;;7.10;99.90;;;;;;8319723;28;20029;-85
2024/03/26 08:21:10;;;;;;;3.05;1.63;;;7.40;99.90;;;;;;8302038;28;20038;-86
2024/03/26 08:25:11;;;;;;;5.18;1.55;;;7.40;99.90;;;;;;8298778;28;20029;-86
2024/03/26 08:29:11;;;;;;;2.63;1.50;;;7.80;99.90;;;;;;8305399;28;20026;-85
2024/03/26 08:33:12;;;;;;;2.70;1.50;;;7.90;99.90;;;;;;8300022;28;20034;-86
2024/03/26 08:37:13;;;;;;;2.67;1.63;;;8.30;99.90;;;;;;8319268;28;20064;-86
2024/03/26 08:41:14;;;;;;;3.28;1.58;;;8.90;99.90;;;;;;8314606;28;20089;-86
2024/03/26 08:45:15;;;;;;;2.33;1.42;;;9.20;99.90;;;;;;8305068;28;20021;-86
2024/03/26 08:49:15;;;;;;;4.18;1.42;;;9.50;99.90;;;;;;8314397;28;20118;-85
2024/03/26 08:53:16;;;;;;;1.48;1.05;;;9.50;99.90;;;;;;8303475;28;20077;-86
2024/03/26 08:57:17;;;;;;;4.35;1.88;;;9.70;99.90;;;;;;8298774;28;20477;-87
2024/03/26 09:01:17;;;;;;;2.38;1.50;;;9.90;99.90;;;;;;8299039;28;20030;-86
2024/03/26 09:05:18;;;;;;;4.47;1.77;;;10.00;99.90;;;;;;8304611;28;20068;-86
2024/03/26 09:09:19;;;;;;;4.45;2.13;;;10.30;99.90;;;;;;8298792;28;20022;-86
2024/03/26 09:13:19;;;;;;;7.80;1.50;;;10.80;99.90;;;;;;8308741;28;20665;-86
2024/03/26 09:17:20;;;;;;;2.60;1.40;;;11.40;99.90;;;;;;8300904;28;20026;-87
2024/03/26 09:21:20;;;;;;;1.70;0.90;;;11.70;99.90;;;;;;8316439;28;20433;-85
2024/03/26 09:25:21;;;;;;;4.45;1.40;;;12.00;99.90;;;;;;8297471;28;20049;-87
2024/03/26 09:29:21;;;;;;;1.52;1.10;;;12.40;99.90;;;;;;8304452;28;20087;-86
2024/03/26 09:33:22;;;;;;;1.08;0.80;;;12.80;99.90;;;;;;8309450;28;20025;-87
2024/03/26 09:37:22;;;;;;;2.95;1.10;;;12.70;99.90;;;;;;8303820;28;20466;-87
2024/03/26 09:41:28;;;;;;;4.43;0.90;;;12.80;99.90;;;;;;8299270;28;20402;-87
2024/03/26 09:45:33;;;;;;;1.08;0.80;;;13.00;99.90;;;;;;8315861;28;20517;-88
2024/03/26 09:49:34;;;;;;;2.17;1.00;;;13.80;99.90;;;;;;8294699;28;20025;-87
2024/03/26 09:53:37;;;;;;;1.17;0.80;;;14.40;99.90;;;;;;8317452;28;20061;-87
2024/03/26 09:57:37;;;;;;;1.00;0.77;;;14.70;99.90;;;;;;8295373;28;20030;-88
2024/03/26 10:01:39;;;;;;;0.88;0.50;;;14.40;99.90;;;;;;8308242;28;20544;-86
2024/03/26 10:05:40;;;;;;;1.63;1.00;;;14.10;99.70;;;;;;8291643;28;20030;-86
2024/03/26 10:09:40;;;;;;;1.48;0.88;;;13.70;99.90;;;;;;8293688;28;20398;-87
2024/03/26 10:13:41;;;;;;;2.47;1.00;;;14.20;99.90;;;;;;8320096;28;20025;-87
2024/03/26 10:17:41;;;;;;;0.88;0.77;;;15.00;99.20;;;;;;8305398;28;20395;-88
2024/03/26 10:21:46;;;;;;;2.15;1.00;;;15.70;99.90;;;;;;8311848;28;20494;-87
2024/03/26 10:25:48;;;;;;;1.25;0.98;;;15.90;96.10;;;;;;8297439;28;20432;-87
2024/03/26 10:29:52;;;;;;;1.80;0.70;;;15.90;93.60;;;;;;8305785;28;20026;-87
2024/03/26 10:33:53;;;;;;;0.90;0.70;;;15.80;94.70;;;;;;8293793;28;20026;-87
2024/03/26 10:37:55;;;;;;;1.17;0.70;;;15.50;95.10;;;;;;8308792;28;20022;-90
2024/03/26 10:41:55;;;;;;;0.90;0.70;;;15.90;96.10;;;;;;8293392;28;20026;-87
2024/03/26 10:45:57;;;;;;;1.70;0.80;;;16.00;95.30;;;;;;8305260;28;20021;-87
2024/03/26 10:49:58;;;;;;;0.70;0.60;;;15.80;95.00;;;;;;8310859;28;20049;-86
2024/03/26 10:53:59;;;;;;;1.60;0.82;;;14.90;97.10;;;;;;8301488;28;20482;-86
2024/03/26 10:58:00;;;;;;;1.30;0.80;;;14.50;95.10;;;;;;8294202;28;20026;-87
2024/03/26 11:02:02;;;;;;;1.55;0.98;;;14.50;97.00;;;;;;8311430;28;20479;-86
2024/03/26 11:06:02;;;;;;;0.95;0.70;;;14.40;98.30;;;;;;8295938;28;20026;-87
2024/03/26 11:10:09;;;;;;;4.60;0.75;;;14.30;97.30;;;;;;8307217;28;20037;-87
2024/03/26 11:14:11;;;;;;;1.30;0.47;;;14.20;96.90;;;;;;8300140;28;20104;-87
2024/03/26 11:18:12;;;;;;;1.75;0.77;;;14.80;97.70;;;;;;8299707;28;20026;-87
2024/03/26 11:22:13;;;;;;;2.20;1.00;;;15.50;97.80;;;;;;8298069;28;20095;-86
2024/03/26 11:26:25;;;;;;;1.95;0.93;;;15.40;97.80;;;;;;8304459;28;20442;-86
2024/03/26 11:30:30;;;;;;;0.75;0.47;;;15.60;97.10;;;;;;8297672;28;20496;-86
2024/03/26 11:34:31;;;;;;;0.90;0.70;;;15.70;95.50;;;;;;8295085;28;20025;-87
2024/03/26 11:38:32;;;;;;;2.75;1.00;;;15.40;94.70;;;;;;8313586;28;20057;-86
2024/03/26 11:42:33;;;;;;;1.85;1.00;;;16.10;93.50;;;;;;8296199;28;20029;-87
2024/03/26 11:46:34;;;;;;;1.48;0.63;;;16.40;96.90;;;;;;8311236;28;20064;-87
2024/03/26 11:50:35;;;;;;;0.73;0.60;;;15.80;91.70;;;;;;8324100;28;20049;-87
2024/03/26 11:54:35;;;;;;;0.43;0.40;;;16.20;92.70;;;;;;8310282;28;20080;-86
2024/03/26 11:58:37;;;;;;;0.35;0.35;;;16.20;90.90;;;;;;8320172;28;20018;-86
2024/03/26 12:02:37;;;;;;;0.82;0.57;;;16.90;90.20;;;;;;8298752;28;20034;-87
2024/03/26 12:06:38;;;;;;;1.50;0.65;;;17.60;92.70;;;;;;8302369;28;20056;-87
2024/03/26 12:10:39;;;;;;;0.73;0.65;;;18.30;85.10;;;;;;8305637;28;20042;-87
2024/03/26 12:14:40;;;;;;;0.80;0.65;;;17.90;84.50;;;;;;8317627;28;20033;-87
2024/03/26 12:18:40;;;;;;;0.60;0.50;;;17.40;80.70;;;;;;8322702;28;20017;-87
2024/03/26 12:22:41;;;;;;;0.20;0.20;;;17.40;83.80;;;;;;8320817;28;20030;-87
2024/03/26 12:26:41;;;;;;;0.98;0.70;;;16.90;82.60;;;;;;8315561;28;20521;-87
2024/03/26 12:30:42;;;;;;;0.88;0.60;;;15.90;88.40;;;;;;8297975;28;20022;-87
2024/03/26 12:34:43;;;;;;;0.82;0.50;;;16.10;86.70;;;;;;8317490;28;20084;-86
2024/03/26 12:38:43;;;;;;;0.90;0.50;;;16.60;84.50;;;;;;8295255;28;20030;-87
2024/03/26 12:42:45;;;;;;;0.70;0.57;;;16.70;88.20;;;;;;8301589;28;20053;-87
2024/03/26 12:46:45;;;;;;;0.80;0.70;;;16.70;90.10;;;;;;8307026;28;20026;-86
2024/03/26 12:50:46;;;;;;;0.40;0.32;;;16.10;90.20;;;;;;8302570;28;20065;-87
2024/03/26 12:54:47;;;;;;;0.95;0.60;;;16.10;91.50;;;;;;8289185;28;20024;-86
2024/03/26 12:58:47;;;;;;;1.00;0.90;;;16.40;92.50;;;;;;8305822;28;20026;-87
2024/03/26 13:02:48;;;;;;;1.25;0.88;;;17.70;92.10;;;;;;8308939;28;20052;-87
2024/03/26 13:06:49;;;;;;;3.00;1.00;;;19.40;87.90;;;;;;8320001;28;20032;-87
2024/03/26 13:10:50;;;;;;;1.73;0.95;;;20.20;84.30;;;;;;8295441;28;20026;-87
2024/03/26 13:14:50;;;;;;;1.58;0.95;;;22.30;78.70;;;;;;8320485;28;20026;-87
2024/03/26 13:18:51;;;;;;;2.40;0.80;;;21.10;79.00;;;;;;8310283;28;20037;-87
2024/03/26 13:22:51;;;;;;;2.53;1.02;;;18.10;85.80;;;;;;8317427;28;20033;-86
2024/03/26 13:26:52;;;;;;;1.27;0.90;;;16.20;91.30;;;;;;8299509;28;20037;-89
2024/03/26 13:30:54;;;;;;;2.00;1.10;;;15.70;94.10;;;;;;8310283;28;20026;-87
2024/03/26 13:34:54;;;;;;;1.90;0.90;;;16.90;92.70;;;;;;8312211;28;20025;-87
2024/03/26 13:38:55;;;;;;;1.33;1.17;;;17.80;93.30;;;;;;8315300;28;20100;-87
2024/03/26 13:42:55;;;;;;;1.55;1.00;;;19.70;87.90;;;;;;8286706;28;20568;-88
2024/03/26 13:46:56;;;;;;;2.55;1.33;;;20.00;89.40;;;;;;8303800;28;20065;-86
2024/03/26 13:50:57;;;;;;;1.38;0.90;;;18.70;91.80;;;;;;8312685;28;20037;-87
2024/03/26 13:54:57;;;;;;;1.83;0.88;;;19.30;85.70;;;;;;8303166;28;20029;-87
2024/03/26 13:59:00;;;;;;;0.90;0.70;;;21.10;82.70;;;;;;8312321;28;20026;-87
2024/03/26 14:03:05;;;;;;;1.40;0.88;;;21.70;80.60;;;;;;8299203;28;20505;-87
2024/03/26 14:07:11;;;;;;;2.30;0.93;;;22.90;79.60;;;;;;8311986;28;20400;-87
2024/03/26 14:11:16;;;;;;;1.45;0.82;;;24.00;72.10;;;;;;8321329;28;20025;-88
2024/03/26 14:15:19;;;;;;;2.22;0.95;;;23.80;71.70;;;;;;8315825;28;20022;-88
2024/03/26 14:19:24;;;;;;;2.70;0.82;;;23.00;71.00;;;;;;8312307;28;20034;-88
2024/03/26 14:23:27;;;;;;;1.83;1.20;;;22.70;74.60;;;;;;8298057;28;20036;-87
2024/03/26 14:27:32;;;;;;;1.27;1.10;;;23.60;71.00;;;;;;8303791;28;20029;-88
2024/03/26 14:31:38;;;;;;;1.40;0.90;;;24.20;68.40;;;;;;8315530;28;20113;-87
2024/03/26 14:35:38;;;;;;;4.40;1.10;;;25.80;66.80;;;;;;8303951;28;20152;-88
2024/03/26 14:39:42;;;;;;;2.08;1.27;;;26.50;66.90;;;;;;8317000;28;20379;-88
2024/03/26 14:43:47;;;;;;;1.25;0.90;;;27.40;64.30;;;;;;8298058;28;20022;-88
2024/03/26 14:47:50;;;;;;;1.65;1.17;;;29.10;55.40;;;;;;8311730;28;20255;-89
2024/03/26 14:51:50;;;;;;;1.40;0.80;;;29.00;53.10;;;;;;8294494;28;20079;-88
2024/03/26 14:55:51;;;;;;;1.55;1.02;;;25.70;60.30;;;;;;8317498;28;20026;-87
2024/03/26 14:59:52;;;;;;;1.73;1.15;;;25.00;64.50;;;;;;8289976;28;20053;-87
2024/03/26 15:03:52;;;;;;;1.40;1.05;;;24.50;69.90;;;;;;8310751;28;20734;-89
2024/03/26 15:07:53;;;;;;;1.88;1.08;;;24.40;61.30;;;;;;8296675;28;20021;-88
2024/03/26 15:11:53;;;;;;;2.25;1.02;;;23.90;65.00;;;;;;8297969;28;20022;-91
2024/03/26 15:15:54;;;;;;;2.75;1.20;;;22.70;72.30;;;;;;8315998;28;20029;-88
2024/03/26 15:19:54;;;;;;;1.50;0.90;;;20.00;73.70;;;;;;8319851;28;20093;-88
2024/03/26 15:23:55;;;;;;;1.85;1.13;;;18.60;80.50;;;;;;8315078;28;20034;-88
2024/03/26 15:32:15;;;;;;;3.25;1.60;;;16.80;89.20;;;;;;8297839;28;20061;-87
2024/03/26 15:36:15;;;;;;;2.15;1.27;;;16.30;89.60;;;;;;8315389;28;20030;-87
2024/03/26 15:40:16;;;;;;;2.92;1.20;;;16.30;91.20;;;;;;8301476;28;20468;-86
2024/03/26 15:44:16;;;;;;;2.53;1.20;;;16.20;92.90;;;;;;8295215;28;20026;-86
2024/03/26 15:48:17;;;;;;;2.50;1.33;;;16.00;93.10;;;;;;8303159;28;20061;-86
2024/03/26 15:52:17;;;;;;;2.40;1.60;;;15.90;92.40;;;;;;8299587;28;20030;-87
2024/03/26 15:56:18;;;;;;;3.40;1.63;;;16.10;93.40;;;;;;8295609;28;20413;-85
2024/03/26 16:00:19;;;;;;;3.03;2.00;;;16.80;92.50;;;;;;8293646;28;20642;-87
2024/03/26 16:04:19;;;;;;;2.92;1.88;;;17.30;91.10;;;;;;8289555;28;20018;-87
2024/03/26 16:08:20;;;;;;;3.55;1.40;;;17.10;92.70;;;;;;8288987;28;20046;-87
2024/03/26 16:12:20;;;;;;;3.15;1.27;;;17.00;91.50;;;;;;8299138;28;20022;-87
2024/03/26 16:16:21;;;;;;;4.47;1.85;;;17.30;93.20;;;;;;8298423;28;20048;-87
2024/03/26 16:20:22;;;;;;;3.17;1.65;;;16.90;93.50;;;;;;8299442;28;20044;-87
2024/03/26 16:24:22;;;;;;;3.63;1.38;;;16.50;94.20;;;;;;8296709;28;20053;-85
2024/03/26 16:28:23;;;;;;;3.25;1.90;;;15.60;94.70;;;;;;8298508;28;20032;-87
2024/03/26 16:32:23;;;;;;;2.33;1.33;;;15.00;95.90;;;;;;8298226;28;20211;-87
2024/03/26 16:36:24;;;;;;;3.20;1.60;;;14.70;96.60;;;;;;8294949;28;20070;-86
2024/03/26 16:40:24;;;;;;;5.30;1.45;;;14.70;97.50;;;;;;8304632;28;20033;-87
2024/03/26 16:44:25;;;;;;;3.05;1.65;;;14.40;99.20;;;;;;8310397;28;20034;-87
2024/03/26 16:48:26;;;;;;;2.88;1.42;;;14.20;98.50;;;;;;8291386;28;20038;-87
2024/03/26 16:52:27;;;;;;;3.42;1.52;;;14.10;98.30;;;;;;8315393;28;20516;-88
2024/03/26 16:56:28;;;;;;;3.42;1.55;;;13.80;99.40;;;;;;8299125;28;20088;-87
2024/03/26 17:00:30;;;;;;;1.65;1.17;;;13.70;98.30;;;;;;8298614;28;20139;-88
2024/03/26 17:04:32;;;;;;;3.17;1.77;;;13.40;99.90;;;;;;8294086;28;20022;-88
2024/03/26 17:08:33;;;;;;;3.53;1.42;;;12.90;99.90;;;;;;8300177;28;20022;-90
2024/03/26 17:12:33;;;;;;;2.00;1.45;;;12.20;99.90;;;;;;8303126;28;20030;-88
2024/03/26 17:16:35;;;;;;;2.20;1.38;;;11.70;99.90;;;;;;8299699;28;20444;-90
2024/03/26 17:20:36;;;;;;;2.22;1.60;;;11.40;99.90;;;;;;8298121;28;20041;-88
2024/03/26 17:24:36;;;;;;;3.47;1.40;;;11.00;99.90;;;;;;8300787;28;20497;-87
2024/03/26 17:28:37;;;;;;;2.72;1.50;;;10.70;99.90;;;;;;8320608;28;20517;-88
2024/03/26 17:32:38;;;;;;;2.65;1.52;;;10.50;99.90;;;;;;8319215;28;20506;-87
2024/03/26 17:36:38;;;;;;;2.50;1.50;;;10.40;99.90;;;;;;8299886;28;20038;-88
2024/03/26 17:40:40;;;;;;;4.53;1.65;;;10.10;99.90;;;;;;8325222;28;20025;-87
2024/03/26 17:44:40;;;;;;;3.50;1.98;;;10.00;99.90;;;;;;8300747;28;20029;-88
2024/03/26 17:48:41;;;;;;;3.70;1.67;;;9.90;99.90;;;;;;8294036;28;20548;-87
2024/03/26 17:52:42;;;;;;;2.42;1.55;;;9.80;99.90;;;;;;8296989;28;20026;-87
2024/03/26 17:56:43;;;;;;;3.45;1.60;;;9.50;99.90;;;;;;8297313;28;20049;-87
2024/03/26 18:00:43;;;;;;;6.20;1.45;;;9.20;99.90;;;;;;8295696;28;20036;-87
2024/03/26 18:04:44;;;;;;;2.35;1.35;;;9.00;99.90;;;;;;8300868;28;20022;-88
2024/03/26 18:08:45;;;;;;;2.15;1.27;;;8.90;99.90;;;;;;8294372;28;20041;-87
2024/03/26 18:12:47;;;;;;;5.75;1.70;;;8.70;99.90;;;;;;8309667;28;20093;-87
2024/03/26 18:16:47;;;;;;;3.92;1.77;;;8.50;99.90;;;;;;8297540;28;20014;-87
2024/03/26 18:20:56;;;;;;;2.72;1.50;;;8.30;99.90;;;;;;8297674;28;20470;-87
2024/03/26 18:24:57;;;;;;;5.47;2.05;;;8.20;99.90;;;;;;8316734;28;20022;-86
2024/03/26 18:28:58;;;;;;;5.53;2.13;;;8.30;99.90;;;;;;8317733;28;20041;-87
2024/03/26 18:32:59;;;;;;;3.30;2.10;;;8.10;99.90;;;;;;8296991;28;20022;-86
2024/03/26 18:37:00;;;;;;;3.67;2.05;;;7.90;99.90;;;;;;8291192;28;20022;-86
2024/03/26 18:41:07;;;;;;;2.67;1.77;;;7.60;99.90;;;;;;8308415;28;20021;-87
2024/03/26 18:45:07;;;;;;;4.18;2.33;;;7.50;99.90;;;;;;8300007;28;20030;-86
2024/03/26 18:49:08;;;;;;;3.50;2.15;;;7.50;99.90;;;;;;8314013;28;20055;-87
2024/03/26 18:53:09;;;;;;;3.53;2.00;;;7.30;99.90;;;;;;8314520;28;20042;-87
2024/03/26 18:57:12;;;;;;;5.97;2.10;;;7.00;99.90;;;;;;8295610;28;20026;-87
2024/03/26 19:01:19;;;;;;;5.15;1.75;;;7.00;99.90;;;;;;8289331;28;20026;-87
2024/03/26 19:05:20;;;;;;;3.38;2.00;;;6.70;99.90;;;;;;8314182;28;20113;-87
2024/03/26 19:09:20;;;;;;;6.15;1.95;;;6.50;99.90;;;;;;8293300;28;20038;-86
2024/03/26 19:13:21;;;;;;;4.80;1.95;;;6.30;99.90;;;;;;8300688;28;20044;-86
2024/03/26 19:17:22;;;;;;;3.50;1.80;;;6.20;99.90;;;;;;8301996;28;20022;-87
2024/03/26 19:21:22;;;;;;;5.65;2.05;;;6.10;99.90;;;;;;8301386;28;20358;-86
2024/03/26 19:25:23;;;;;;;3.90;1.65;;;5.90;99.90;;;;;;8306033;28;20037;-89
2024/03/26 19:29:24;;;;;;;2.65;1.75;;;6.20;99.90;;;;;;8299342;28;20033;-86
2024/03/26 19:33:25;;;;;;;2.83;1.90;;;6.00;99.90;;;;;;8298212;28;20041;-86
2024/03/26 19:37:26;;;;;;;5.10;2.70;;;5.80;99.90;;;;;;8315370;28;20490;-87
2024/03/26 19:41:26;;;;;;;9.10;2.97;;;5.80;99.90;;;;;;8305076;28;20021;-86
2024/03/26 19:45:27;;;;;;;9.38;3.72;;;5.70;99.90;;;;;;8301171;28;20406;-86
2024/03/26 19:49:28;;;;;;;8.50;3.20;;;5.70;99.90;;;;;;8296842;28;20629;-85
2024/03/26 19:53:29;;;;;;;6.43;3.15;;;5.80;99.90;;;;;;8314184;28;20021;-86
2024/03/26 19:57:29;;;;;;;2.67;1.83;;;5.70;99.90;;;;;;8303974;28;20022;-86
2024/03/26 20:01:30;;;;;;;5.60;2.00;;;5.50;99.90;;;;;;8298621;28;20649;-87
2024/03/26 20:05:30;;;;;;;2.40;1.70;;;5.20;99.90;;;;;;8302816;28;20083;-86
2024/03/26 20:09:32;;;;;;;8.90;4.03;;;5.10;99.90;;;;;;8298606;28;20029;-86
2024/03/26 20:13:36;;;;;;;10.13;5.90;;;5.10;99.90;;;;;;8298565;28;20025;-86
2024/03/26 20:17:37;;;;;;;5.80;3.53;;;5.10;99.90;;;;;;8300974;28;20018;-87
2024/03/26 20:21:38;;;;;;;9.02;3.58;;;5.00;99.90;;;;;;8299097;28;20038;-86
2024/03/26 20:25:38;;;;;;;3.53;1.83;;;5.30;99.90;;;;;;8305496;28;20045;-86
2024/03/26 20:29:39;;;;;;;5.78;2.70;;;5.30;99.90;;;;;;8297420;28;20017;-86
2024/03/26 20:33:39;;;;;;;5.75;2.90;;;5.20;99.90;;;;;;8308881;28;20032;-86
2024/03/26 20:37:40;;;;;;;5.70;2.17;;;5.10;99.90;;;;;;8298410;28;20029;-85
2024/03/26 20:41:41;;;;;;;5.68;3.10;;;5.10;99.90;;;;;;8297428;28;20037;-86
2024/03/26 20:45:41;;;;;;;6.45;3.35;;;5.20;99.90;;;;;;8301802;28;20060;-87
2024/03/26 20:49:42;;;;;;;13.00;3.60;;;5.30;99.90;;;;;;8304611;28;20033;-87
2024/03/26 20:53:42;;;;;;;10.75;4.53;;;5.20;99.90;;;;;;8315393;28;20077;-86
2024/03/26 20:57:46;;;;;;;16.00;5.50;;;5.00;99.90;;;;;;8323124;28;20026;-86
2024/03/26 21:01:47;;;;;;;8.73;4.32;;;5.00;99.90;;;;;;8315545;28;20030;-86
2024/03/26 21:06:13;;;;;;;11.75;3.88;;;5.10;99.90;;;;;;8328961;28;20033;-87
2024/03/26 21:10:15;;;;;;;7.80;3.60;;;5.00;99.90;;;;;;8284123;28;20037;-86